createdAt,value
2016-12-11T00:00:17.242Z,20
2016-12-11T00:01:32.350Z,16
2016-12-11T00:02:47.833Z,16
2016-12-11T00:04:04.393Z,16
2016-12-11T00:05:20.412Z,16
2016-12-11T00:06:36.788Z,16
2016-12-11T00:07:52.307Z,0
2016-12-11T00:09:07.305Z,0
2016-12-11T00:10:23.516Z,0
2016-12-11T00:11:39.273Z,0
2016-12-11T00:12:55.612Z,0
2016-12-11T00:14:11.346Z,0
2016-12-11T00:15:26.700Z,0
2016-12-11T00:16:43.909Z,0
2016-12-11T00:18:01.298Z,0
2016-12-11T00:19:17.858Z,0
2016-12-11T00:20:32.559Z,0
2016-12-11T00:21:48.530Z,0
2016-12-11T00:23:04.874Z,0
2016-12-11T00:24:19.523Z,0
2016-12-11T00:25:35.974Z,0
2016-12-11T00:26:51.212Z,0
2016-12-11T00:28:06.833Z,0
2016-12-11T00:29:21.338Z,0
2016-12-11T00:30:37.399Z,0
2016-12-11T00:31:52.682Z,0
2016-12-11T00:33:06.017Z,0
2016-12-11T00:34:20.664Z,0
2016-12-11T00:35:33.925Z,0
2016-12-11T00:36:49.975Z,0
2016-12-11T00:38:06.525Z,0
2016-12-11T00:39:23.661Z,0
2016-12-11T00:40:38.844Z,0
2016-12-11T00:41:54.113Z,0
2016-12-11T00:43:09.232Z,0
2016-12-11T00:44:22.391Z,0
2016-12-11T00:45:36.086Z,0
2016-12-11T00:46:50.166Z,0
2016-12-11T00:48:05.371Z,0
2016-12-11T00:49:20.294Z,0
2016-12-11T00:50:33.767Z,0
2016-12-11T00:51:49.523Z,0
2016-12-11T00:53:04.661Z,0
2016-12-11T00:54:20.708Z,0
2016-12-11T00:55:37.289Z,0
2016-12-11T00:56:50.689Z,0
2016-12-11T00:58:07.249Z,0
2016-12-11T00:59:20.914Z,0
2016-12-11T01:00:35.264Z,0
2016-12-11T01:01:51.601Z,0
2016-12-11T01:03:07.026Z,0
2016-12-11T01:04:23.189Z,0
2016-12-11T01:05:36.675Z,0
2016-12-11T01:06:53.217Z,0
2016-12-11T01:08:05.506Z,0
2016-12-11T01:09:17.680Z,0
2016-12-11T01:10:32.754Z,0
2016-12-11T01:11:46.669Z,0
2016-12-11T01:13:00.548Z,0
2016-12-11T01:14:15.096Z,0
2016-12-11T01:15:30.240Z,0
2016-12-11T01:16:46.136Z,0
2016-12-11T01:18:02.205Z,0
2016-12-11T01:19:17.234Z,0
2016-12-11T01:20:33.437Z,0
2016-12-11T01:21:49.333Z,0
2016-12-11T01:23:05.453Z,0
2016-12-11T01:24:20.444Z,0
2016-12-11T01:25:36.488Z,0
2016-12-11T01:26:52.055Z,0
2016-12-11T01:28:08.352Z,0
2016-12-11T01:29:24.916Z,0
2016-12-11T01:30:39.888Z,0
2016-12-11T01:31:52.942Z,0
2016-12-11T01:33:07.905Z,0
2016-12-11T01:34:22.584Z,0
2016-12-11T01:35:39.038Z,0
2016-12-11T01:36:54.238Z,0
2016-12-11T01:38:09.677Z,0
2016-12-11T01:39:21.576Z,0
2016-12-11T01:40:37.079Z,0
2016-12-11T01:41:52.428Z,0
2016-12-11T01:43:07.492Z,0
2016-12-11T01:44:21.282Z,0
2016-12-11T01:45:34.791Z,0
2016-12-11T01:46:48.696Z,0
2016-12-11T01:48:02.250Z,0
2016-12-11T01:49:17.346Z,0
2016-12-11T01:50:31.767Z,0
2016-12-11T01:51:48.443Z,0
2016-12-11T01:53:02.456Z,0
2016-12-11T01:54:19.008Z,0
2016-12-11T01:55:33.280Z,0
2016-12-11T01:56:46.382Z,0
2016-12-11T01:58:01.074Z,0
2016-12-11T01:59:14.709Z,0
2016-12-11T02:00:31.465Z,0
2016-12-11T02:01:46.960Z,0
2016-12-11T02:02:59.304Z,0
2016-12-11T02:04:12.641Z,0
2016-12-11T02:05:26.458Z,0
2016-12-11T02:06:40.472Z,0
2016-12-11T02:07:56.803Z,0
2016-12-11T02:09:12.225Z,0
2016-12-11T02:10:26.501Z,0
2016-12-11T02:11:41.349Z,0
2016-12-11T02:12:54.580Z,0
2016-12-11T02:14:07.910Z,0
2016-12-11T02:15:22.631Z,0
2016-12-11T02:16:38.968Z,0
2016-12-11T02:17:55.452Z,0
2016-12-11T02:19:10.145Z,0
2016-12-11T02:20:26.194Z,0
2016-12-11T02:21:41.193Z,0
2016-12-11T02:22:55.978Z,0
2016-12-11T02:24:12.690Z,0
2016-12-11T02:25:29.388Z,0
2016-12-11T02:26:41.824Z,0
2016-12-11T02:27:56.660Z,0
2016-12-11T02:29:10.623Z,0
2016-12-11T02:30:26.979Z,0
2016-12-11T02:31:43.664Z,0
2016-12-11T02:32:55.620Z,0
2016-12-11T02:34:12.059Z,0
2016-12-11T02:35:27.155Z,0
2016-12-11T02:36:41.699Z,0
2016-12-11T02:37:58.570Z,0
2016-12-11T02:39:14.539Z,0
2016-12-11T02:40:28.106Z,0
2016-12-11T02:41:43.199Z,0
2016-12-11T02:42:59.535Z,0
2016-12-11T02:44:14.352Z,0
2016-12-11T02:45:29.471Z,0
2016-12-11T02:46:43.369Z,0
2016-12-11T02:47:58.948Z,0
2016-12-11T02:49:14.182Z,0
2016-12-11T02:50:29.441Z,0
2016-12-11T02:51:43.638Z,0
2016-12-11T02:52:58.735Z,0
2016-12-11T02:54:14.083Z,0
2016-12-11T02:55:29.335Z,0
2016-12-11T02:56:43.153Z,0
2016-12-11T02:57:56.618Z,0
2016-12-11T02:59:10.330Z,0
2016-12-11T03:00:26.612Z,0
2016-12-11T03:01:41.529Z,0
2016-12-11T03:02:57.817Z,0
2016-12-11T03:04:11.607Z,0
2016-12-11T03:05:27.309Z,0
2016-12-11T03:06:43.860Z,0
2016-12-11T03:07:58.566Z,0
2016-12-11T03:09:13.030Z,0
2016-12-11T03:10:30.041Z,0
2016-12-11T03:11:43.211Z,0
2016-12-11T03:12:59.125Z,0
2016-12-11T03:14:15.210Z,0
2016-12-11T03:15:27.224Z,0
2016-12-11T03:16:41.611Z,0
2016-12-11T03:17:57.398Z,0
2016-12-11T03:19:12.985Z,0
2016-12-11T03:20:30.161Z,0
2016-12-11T03:21:45.214Z,0
2016-12-11T03:22:59.906Z,0
2016-12-11T03:24:16.590Z,0
2016-12-11T03:25:30.058Z,0
2016-12-11T03:26:45.738Z,0
2016-12-11T03:27:59.237Z,0
2016-12-11T03:29:14.073Z,0
2016-12-11T03:30:27.400Z,0
2016-12-11T03:31:41.654Z,0
2016-12-11T03:32:58.318Z,0
2016-12-11T03:34:12.928Z,0
2016-12-11T03:35:27.606Z,0
2016-12-11T03:36:40.933Z,0
2016-12-11T03:37:56.018Z,0
2016-12-11T03:39:09.232Z,0
2016-12-11T03:40:23.544Z,0
2016-12-11T03:41:38.113Z,0
2016-12-11T03:42:53.971Z,0
2016-12-11T03:44:09.060Z,0
2016-12-11T03:45:24.051Z,0
2016-12-11T03:46:40.757Z,0
2016-12-11T03:47:57.164Z,0
2016-12-11T03:49:11.933Z,0
2016-12-11T03:50:28.089Z,0
2016-12-11T03:51:41.781Z,0
2016-12-11T03:52:56.480Z,0
2016-12-11T03:54:09.634Z,0
2016-12-11T03:55:24.710Z,0
2016-12-11T03:56:39.350Z,0
2016-12-11T03:57:55.855Z,0
2016-12-11T03:59:08.586Z,0
2016-12-11T04:00:23.533Z,0
2016-12-11T04:01:37.459Z,0
2016-12-11T04:02:53.588Z,0
2016-12-11T04:04:09.630Z,0
2016-12-11T04:05:23.240Z,0
2016-12-11T04:06:39.796Z,0
2016-12-11T04:07:52.868Z,0
2016-12-11T04:09:09.167Z,0
2016-12-11T04:10:21.109Z,0
2016-12-11T04:11:37.744Z,0
2016-12-11T04:12:53.476Z,0
2016-12-11T04:14:08.579Z,0
2016-12-11T04:15:25.157Z,0
2016-12-11T04:16:39.241Z,0
2016-12-11T04:17:53.528Z,0
2016-12-11T04:19:06.592Z,0
2016-12-11T04:20:18.491Z,0
2016-12-11T04:21:32.927Z,0
2016-12-11T04:22:47.999Z,0
2016-12-11T04:24:03.337Z,0
2016-12-11T04:25:20.040Z,0
2016-12-11T04:26:34.820Z,0
2016-12-11T04:27:48.516Z,0
2016-12-11T04:29:05.276Z,0
2016-12-11T04:30:18.669Z,0
2016-12-11T04:31:33.502Z,0
2016-12-11T04:32:48.399Z,0
2016-12-11T04:34:04.968Z,0
2016-12-11T04:35:19.560Z,0
2016-12-11T04:36:33.982Z,0
2016-12-11T04:37:47.167Z,0
2016-12-11T04:39:02.680Z,0
2016-12-11T04:40:17.035Z,0
2016-12-11T04:41:33.230Z,0
2016-12-11T04:42:48.701Z,0
2016-12-11T04:44:04.837Z,0
2016-12-11T04:45:19.337Z,0
2016-12-11T04:46:34.506Z,0
2016-12-11T04:47:48.543Z,0
2016-12-11T04:49:02.212Z,0
2016-12-11T04:50:16.571Z,0
2016-12-11T04:51:32.656Z,0
2016-12-11T04:52:45.649Z,0
2016-12-11T04:54:01.720Z,0
2016-12-11T04:55:14.826Z,0
2016-12-11T04:56:28.441Z,0
2016-12-11T04:57:43.226Z,0
2016-12-11T04:58:58.847Z,0
2016-12-11T05:00:13.543Z,0
2016-12-11T05:01:29.832Z,0
2016-12-11T05:02:43.351Z,0
2016-12-11T05:03:59.367Z,0
2016-12-11T05:05:13.998Z,0
2016-12-11T05:06:26.401Z,0
2016-12-11T05:07:41.359Z,0
2016-12-11T05:08:56.597Z,0
2016-12-11T05:10:10.224Z,0
2016-12-11T05:11:24.907Z,0
2016-12-11T05:12:41.683Z,0
2016-12-11T05:13:52.481Z,0
2016-12-11T05:15:09.608Z,0
2016-12-11T05:16:24.475Z,0
2016-12-11T05:17:37.513Z,0
2016-12-11T05:18:52.177Z,0
2016-12-11T05:20:06.621Z,0
2016-12-11T05:21:21.186Z,0
2016-12-11T05:22:36.283Z,0
2016-12-11T05:23:49.764Z,0
2016-12-11T05:25:03.855Z,0
2016-12-11T05:26:20.419Z,0
2016-12-11T05:27:34.771Z,0
2016-12-11T05:28:48.417Z,0
2016-12-11T05:30:04.418Z,0
2016-12-11T05:31:18.042Z,0
2016-12-11T05:32:32.827Z,0
2016-12-11T05:33:47.862Z,0
2016-12-11T05:35:02.761Z,0
2016-12-11T05:36:17.762Z,0
2016-12-11T05:37:31.661Z,0
2016-12-11T05:38:46.354Z,0
2016-12-11T05:40:01.833Z,0
2016-12-11T05:41:17.964Z,0
2016-12-11T05:42:30.068Z,0
2016-12-11T05:43:42.821Z,0
2016-12-11T05:44:58.108Z,0
2016-12-11T05:46:14.668Z,0
2016-12-11T05:47:30.316Z,0
2016-12-11T05:48:43.643Z,0
2016-12-11T05:49:56.851Z,0
2016-12-11T05:51:12.196Z,0
2016-12-11T05:52:28.705Z,0
2016-12-11T05:53:44.704Z,0
2016-12-11T05:55:01.488Z,0
2016-12-11T05:56:17.473Z,0
2016-12-11T05:57:33.753Z,0
2016-12-11T05:58:49.482Z,0
2016-12-11T06:00:04.696Z,0
2016-12-11T06:01:20.304Z,0
2016-12-11T06:02:34.830Z,0
2016-12-11T06:03:50.875Z,0
2016-12-11T06:05:04.908Z,0
2016-12-11T06:06:17.638Z,0
2016-12-11T06:07:32.655Z,0
2016-12-11T06:08:47.326Z,0
2016-12-11T06:10:00.781Z,0
2016-12-11T06:11:15.972Z,0
2016-12-11T06:12:30.996Z,0
2016-12-11T06:13:44.149Z,0
2016-12-11T06:15:00.846Z,0
2016-12-11T06:16:16.736Z,0
2016-12-11T06:17:29.454Z,0
2016-12-11T06:18:45.966Z,0
2016-12-11T06:20:02.087Z,0
2016-12-11T06:21:16.916Z,0
2016-12-11T06:22:31.714Z,0
2016-12-11T06:23:47.908Z,0
2016-12-11T06:25:02.109Z,0
2016-12-11T06:26:14.931Z,0
2016-12-11T06:27:28.160Z,0
2016-12-11T06:28:41.143Z,0
2016-12-11T06:29:55.915Z,0
2016-12-11T06:31:11.151Z,0
2016-12-11T06:32:27.354Z,0
2016-12-11T06:33:42.103Z,0
2016-12-11T06:34:58.043Z,0
2016-12-11T06:36:13.123Z,0
2016-12-11T06:37:27.951Z,0
2016-12-11T06:38:44.931Z,0
2016-12-11T06:40:00.824Z,0
2016-12-11T06:41:15.993Z,0
2016-12-11T06:42:32.728Z,0
2016-12-11T06:43:48.924Z,0
2016-12-11T06:45:03.371Z,0
2016-12-11T06:46:20.159Z,0
2016-12-11T06:47:34.449Z,0
2016-12-11T06:48:49.020Z,0
2016-12-11T06:50:01.754Z,0
2016-12-11T06:51:17.799Z,0
2016-12-11T06:52:31.420Z,0
2016-12-11T06:53:45.774Z,4
2016-12-11T06:55:01.858Z,0
2016-12-11T06:56:16.544Z,4
2016-12-11T06:57:29.865Z,4
2016-12-11T06:58:42.946Z,8
2016-12-11T06:59:56.167Z,8
2016-12-11T07:01:11.303Z,8
2016-12-11T07:02:34.187Z,8
2016-12-11T07:03:46.150Z,8
2016-12-11T07:05:00.726Z,8
2016-12-11T07:06:15.352Z,16
2016-12-11T07:07:31.734Z,20
2016-12-11T07:08:46.792Z,24
2016-12-11T07:09:59.983Z,28
2016-12-11T07:11:15.230Z,24
2016-12-11T07:12:28.418Z,28
2016-12-11T07:13:44.158Z,36
2016-12-11T07:14:57.585Z,44
2016-12-11T07:16:10.533Z,52
2016-12-11T07:17:26.223Z,60
2016-12-11T07:18:40.986Z,72
2016-12-11T07:19:52.940Z,84
2016-12-11T07:21:08.879Z,92
2016-12-11T07:22:21.918Z,108
2016-12-11T07:23:36.845Z,124
2016-12-11T07:24:53.088Z,152
2016-12-11T07:26:07.879Z,144
2016-12-11T07:27:23.130Z,140
2016-12-11T07:28:37.951Z,176
2016-12-11T07:29:52.580Z,208
2016-12-11T07:31:08.571Z,248
2016-12-11T07:32:21.752Z,288
2016-12-11T07:33:38.013Z,312
2016-12-11T07:34:54.281Z,340
2016-12-11T07:36:09.287Z,392
2016-12-11T07:37:22.686Z,400
2016-12-11T07:38:36.413Z,360
2016-12-11T07:39:49.384Z,352
2016-12-11T07:41:01.720Z,348
2016-12-11T07:42:18.539Z,324
2016-12-11T07:43:33.980Z,312
2016-12-11T07:44:50.464Z,328
2016-12-11T07:46:05.251Z,344
2016-12-11T07:47:18.688Z,372
2016-12-11T07:48:33.598Z,364
2016-12-11T07:49:46.611Z,356
2016-12-11T07:50:57.460Z,328
2016-12-11T07:52:13.267Z,352
2016-12-11T07:53:26.571Z,352
2016-12-11T07:54:39.814Z,372
2016-12-11T07:55:54.223Z,372
2016-12-11T07:57:09.523Z,360
2016-12-11T07:58:22.939Z,364
2016-12-11T07:59:34.583Z,392
2016-12-11T08:00:51.016Z,460
2016-12-11T08:02:05.696Z,548
2016-12-11T08:03:19.385Z,680
2016-12-11T08:04:35.477Z,592
2016-12-11T08:05:50.735Z,568
2016-12-11T08:07:05.545Z,540
2016-12-11T08:08:18.706Z,596
2016-12-11T08:09:32.261Z,696
2016-12-11T08:10:47.990Z,736
2016-12-11T08:12:02.396Z,824
2016-12-11T08:13:18.427Z,792
2016-12-11T08:14:32.896Z,828
2016-12-11T08:15:47.913Z,856
2016-12-11T08:17:02.874Z,916
2016-12-11T08:18:18.964Z,932
2016-12-11T08:19:35.478Z,980
2016-12-11T08:20:51.770Z,1124
2016-12-11T08:22:06.087Z,1004
2016-12-11T08:23:20.481Z,1080
2016-12-11T08:24:35.775Z,1204
2016-12-11T08:25:48.921Z,1372
2016-12-11T08:27:02.496Z,1292
2016-12-11T08:28:17.623Z,1432
2016-12-11T08:29:32.386Z,1244
2016-12-11T08:30:45.756Z,1304
2016-12-11T08:32:01.811Z,1216
2016-12-11T08:33:14.836Z,1268
2016-12-11T08:34:30.909Z,1296
2016-12-11T08:35:46.016Z,1548
2016-12-11T08:37:02.123Z,1792
2016-12-11T08:38:18.379Z,2304
2016-12-11T08:39:33.952Z,2288
2016-12-11T08:40:45.517Z,2196
2016-12-11T08:42:01.794Z,1628
2016-12-11T08:43:14.682Z,1384
2016-12-11T08:44:31.127Z,1636
2016-12-11T08:45:46.051Z,1768
2016-12-11T08:46:59.445Z,1624
2016-12-11T08:48:16.140Z,1832
2016-12-11T08:49:32.888Z,1908
2016-12-11T08:50:48.139Z,1756
2016-12-11T08:52:01.695Z,1476
2016-12-11T08:53:16.835Z,1800
2016-12-11T08:54:33.268Z,1700
2016-12-11T08:55:48.064Z,1880
2016-12-11T08:57:01.609Z,1680
2016-12-11T08:58:18.075Z,1980
2016-12-11T08:59:32.865Z,3280
2016-12-11T09:00:48.641Z,3536
2016-12-11T09:02:04.123Z,4392
2016-12-11T09:03:20.810Z,4552
2016-12-11T09:04:35.371Z,2608
2016-12-11T09:05:50.852Z,1996
2016-12-11T09:07:04.152Z,2008
2016-12-11T09:08:19.868Z,2356
2016-12-11T09:09:36.990Z,2012
2016-12-11T09:10:53.309Z,1820
2016-12-11T09:12:10.044Z,1108
2016-12-11T09:13:25.609Z,1072
2016-12-11T09:14:42.552Z,1156
2016-12-11T09:15:58.136Z,1212
2016-12-11T09:17:11.620Z,1980
2016-12-11T09:18:24.849Z,2624
2016-12-11T09:19:39.534Z,1968
2016-12-11T09:20:56.014Z,1628
2016-12-11T09:22:10.673Z,880
2016-12-11T09:23:24.476Z,876
2016-12-11T09:24:37.893Z,1472
2016-12-11T09:25:53.919Z,1956
2016-12-11T09:27:10.000Z,1736
2016-12-11T09:28:26.201Z,1088
2016-12-11T09:29:39.864Z,1352
2016-12-11T09:30:55.779Z,1940
2016-12-11T09:32:10.931Z,2052
2016-12-11T09:33:24.724Z,2468
2016-12-11T09:34:39.806Z,2932
2016-12-11T09:35:55.488Z,3188
2016-12-11T09:37:12.358Z,3336
2016-12-11T09:38:27.510Z,3084
2016-12-11T09:39:42.430Z,3200
2016-12-11T09:40:57.634Z,3316
2016-12-11T09:42:12.683Z,2832
2016-12-11T09:43:26.162Z,3088
2016-12-11T09:44:40.829Z,3092
2016-12-11T09:45:54.615Z,3108
2016-12-11T09:47:11.229Z,3504
2016-12-11T09:48:26.750Z,4056
2016-12-11T09:49:42.033Z,4012
2016-12-11T09:50:58.738Z,4660
2016-12-11T09:52:15.279Z,3356
2016-12-11T09:53:30.771Z,2516
2016-12-11T09:54:43.545Z,3372
2016-12-11T09:55:59.301Z,3908
2016-12-11T09:57:14.199Z,3380
2016-12-11T09:58:28.893Z,2120
2016-12-11T09:59:45.356Z,2556
2016-12-11T10:01:01.681Z,3724
2016-12-11T10:02:16.687Z,3372
2016-12-11T10:03:30.333Z,3568
2016-12-11T10:04:45.003Z,3612
2016-12-11T10:05:59.367Z,2064
2016-12-11T10:07:14.204Z,1736
2016-12-11T10:08:30.160Z,2116
2016-12-11T10:09:44.466Z,3532
2016-12-11T10:10:59.727Z,3580
2016-12-11T10:12:13.181Z,3192
2016-12-11T10:13:25.451Z,3928
2016-12-11T10:14:40.762Z,3808
2016-12-11T10:15:57.325Z,4380
2016-12-11T10:17:11.035Z,3432
2016-12-11T10:18:27.775Z,2808
2016-12-11T10:19:42.464Z,3220
2016-12-11T10:20:59.019Z,2996
2016-12-11T10:22:14.326Z,3116
2016-12-11T10:23:28.613Z,3908
2016-12-11T10:24:43.564Z,6140
2016-12-11T10:25:58.442Z,5652
2016-12-11T10:27:15.762Z,5500
2016-12-11T10:28:32.601Z,4464
2016-12-11T10:29:46.442Z,4896
2016-12-11T10:31:01.582Z,5916
2016-12-11T10:32:16.309Z,5272
2016-12-11T10:33:31.423Z,7064
2016-12-11T10:34:47.515Z,5176
2016-12-11T10:36:03.716Z,21568
2016-12-11T10:37:18.636Z,6236
2016-12-11T10:38:31.903Z,22464
2016-12-11T10:39:48.216Z,7048
2016-12-11T10:41:01.598Z,4084
2016-12-11T10:42:13.434Z,4372
2016-12-11T10:43:28.548Z,3296
2016-12-11T10:44:45.298Z,4076
2016-12-11T10:45:59.783Z,3608
2016-12-11T10:47:15.455Z,2932
2016-12-11T10:48:28.909Z,4180
2016-12-11T10:49:44.021Z,3816
2016-12-11T10:50:58.452Z,3988
2016-12-11T10:52:11.857Z,4620
2016-12-11T10:53:27.727Z,5440
2016-12-11T10:54:44.470Z,4332
2016-12-11T10:56:00.534Z,6264
2016-12-11T10:57:14.165Z,6316
2016-12-11T10:58:30.778Z,8320
2016-12-11T10:59:45.604Z,7444
2016-12-11T11:01:00.729Z,5688
2016-12-11T11:02:14.206Z,4144
2016-12-11T11:03:29.103Z,4524
2016-12-11T11:04:46.104Z,4588
2016-12-11T11:05:57.738Z,5396
2016-12-11T11:07:12.732Z,5220
2016-12-11T11:08:28.451Z,6096
2016-12-11T11:09:43.302Z,6048
2016-12-11T11:10:59.878Z,4044
2016-12-11T11:12:14.499Z,3712
2016-12-11T11:13:31.126Z,5324
2016-12-11T11:14:47.041Z,4844
2016-12-11T11:16:00.146Z,3248
2016-12-11T11:17:15.238Z,2688
2016-12-11T11:18:31.714Z,1816
2016-12-11T11:19:48.254Z,1160
2016-12-11T11:21:02.544Z,1492
2016-12-11T11:22:19.130Z,1440
2016-12-11T11:23:32.563Z,2224
2016-12-11T11:24:48.323Z,2632
2016-12-11T11:26:01.398Z,4676
2016-12-11T11:27:16.135Z,6748
2016-12-11T11:28:32.643Z,8420
2016-12-11T11:29:48.721Z,5744
2016-12-11T11:31:04.768Z,4124
2016-12-11T11:32:19.943Z,4540
2016-12-11T11:33:36.436Z,5788
2016-12-11T11:34:50.799Z,4888
2016-12-11T11:36:02.692Z,4532
2016-12-11T11:37:17.729Z,6492
2016-12-11T11:38:32.199Z,5072
2016-12-11T11:39:48.516Z,5120
2016-12-11T11:41:03.659Z,4704
2016-12-11T11:42:19.614Z,4348
2016-12-11T11:43:36.328Z,3104
2016-12-11T11:44:52.169Z,3408
2016-12-11T11:46:05.688Z,3612
2016-12-11T11:47:18.992Z,3376
2016-12-11T11:48:33.300Z,3560
2016-12-11T11:49:49.576Z,3736
2016-12-11T11:51:04.800Z,3212
2016-12-11T11:52:20.189Z,3176
2016-12-11T11:53:37.118Z,3560
2016-12-11T11:54:52.359Z,4528
2016-12-11T11:56:05.685Z,4480
2016-12-11T11:57:21.841Z,5448
2016-12-11T11:58:39.270Z,4468
2016-12-11T11:59:54.412Z,4592
2016-12-11T12:01:09.479Z,4180
2016-12-11T12:02:26.032Z,3972
2016-12-11T12:03:43.207Z,3504
2016-12-11T12:04:57.875Z,3768
2016-12-11T12:06:11.833Z,3916
2016-12-11T12:07:27.369Z,4116
2016-12-11T12:08:40.943Z,4876
2016-12-11T12:09:57.142Z,5488
2016-12-11T12:11:10.904Z,4424
2016-12-11T12:12:27.425Z,3664
2016-12-11T12:13:43.929Z,2984
2016-12-11T12:14:59.207Z,2864
2016-12-11T12:16:14.015Z,2944
2016-12-11T12:17:30.204Z,3128
2016-12-11T12:18:46.265Z,2772
2016-12-11T12:19:59.597Z,3124
2016-12-11T12:21:14.763Z,3688
2016-12-11T12:22:29.187Z,4156
2016-12-11T12:23:45.016Z,4444
2016-12-11T12:25:01.169Z,3692
2016-12-11T12:26:16.722Z,3012
2016-12-11T12:27:31.845Z,2332
2016-12-11T12:28:48.586Z,1916
2016-12-11T12:30:04.088Z,1652
2016-12-11T12:31:19.991Z,1864
2016-12-11T12:32:36.430Z,1840
2016-12-11T12:33:52.321Z,1856
2016-12-11T12:35:06.614Z,2084
2016-12-11T12:36:23.031Z,2084
2016-12-11T12:37:37.473Z,2400
2016-12-11T12:38:54.244Z,1936
2016-12-11T12:40:09.315Z,2276
2016-12-11T12:41:23.244Z,2760
2016-12-11T12:42:36.661Z,2488
2016-12-11T12:43:51.808Z,2140
2016-12-11T12:45:05.537Z,1744
2016-12-11T12:46:19.856Z,1984
2016-12-11T12:47:36.607Z,1496
2016-12-11T12:48:48.934Z,1940
2016-12-11T12:50:05.817Z,2512
2016-12-11T12:51:20.605Z,2164
2016-12-11T12:52:36.925Z,2124
2016-12-11T12:53:51.590Z,1736
2016-12-11T12:55:04.921Z,1872
2016-12-11T12:56:21.786Z,1964
2016-12-11T12:57:36.651Z,1628
2016-12-11T12:58:53.463Z,1356
2016-12-11T13:00:05.649Z,1680
2016-12-11T13:01:20.066Z,1660
2016-12-11T13:02:36.154Z,1488
2016-12-11T13:03:52.460Z,1652
2016-12-11T13:05:07.267Z,1696
2016-12-11T13:06:21.628Z,1828
2016-12-11T13:07:33.485Z,1744
2016-12-11T13:08:48.456Z,1420
2016-12-11T13:10:04.240Z,1040
2016-12-11T13:11:17.316Z,664
2016-12-11T13:12:33.516Z,884
2016-12-11T13:13:49.882Z,848
2016-12-11T13:15:05.984Z,1076
2016-12-11T13:16:20.180Z,832
2016-12-11T13:17:37.152Z,1160
2016-12-11T13:18:52.319Z,2196
2016-12-11T13:20:08.656Z,2936
2016-12-11T13:21:23.266Z,3360
2016-12-11T13:22:36.273Z,3752
2016-12-11T13:23:51.836Z,3424
2016-12-11T13:25:08.808Z,3272
2016-12-11T13:26:24.726Z,3228
2016-12-11T13:27:39.317Z,2992
2016-12-11T13:28:55.725Z,2596
2016-12-11T13:30:10.483Z,2196
2016-12-11T13:31:26.889Z,1844
2016-12-11T13:32:43.219Z,1592
2016-12-11T13:33:54.747Z,1468
2016-12-11T13:35:11.062Z,1448
2016-12-11T13:36:25.505Z,1508
2016-12-11T13:37:40.776Z,1504
2016-12-11T13:38:57.112Z,1508
2016-12-11T13:40:12.085Z,1516
2016-12-11T13:41:28.534Z,1672
2016-12-11T13:42:43.543Z,1932
2016-12-11T13:43:58.708Z,2156
2016-12-11T13:45:13.044Z,2084
2016-12-11T13:46:27.716Z,2032
2016-12-11T13:47:42.327Z,2028
2016-12-11T13:48:59.219Z,1892
2016-12-11T13:50:14.426Z,1804
2016-12-11T13:51:29.811Z,1812
2016-12-11T13:52:42.952Z,1852
2016-12-11T13:53:59.277Z,1988
2016-12-11T13:55:15.169Z,2152
2016-12-11T13:56:28.787Z,2080
2016-12-11T13:57:43.985Z,1876
2016-12-11T13:58:55.755Z,1540
2016-12-11T14:00:11.657Z,1260
2016-12-11T14:01:28.247Z,1184
2016-12-11T14:02:44.803Z,1140
2016-12-11T14:04:00.047Z,1136
2016-12-11T14:05:15.480Z,832
2016-12-11T14:06:29.930Z,620
2016-12-11T14:07:44.581Z,492
2016-12-11T14:08:57.424Z,668
2016-12-11T14:10:13.363Z,592
2016-12-11T14:11:29.596Z,636
2016-12-11T14:12:44.255Z,1028
2016-12-11T14:14:00.244Z,1240
2016-12-11T14:15:15.136Z,1088
2016-12-11T14:16:30.933Z,1312
2016-12-11T14:17:47.251Z,1368
2016-12-11T14:19:03.011Z,1320
2016-12-11T14:20:19.264Z,1288
2016-12-11T14:21:34.400Z,1240
2016-12-11T14:22:47.756Z,1200
2016-12-11T14:24:04.468Z,1072
2016-12-11T14:25:21.062Z,792
2016-12-11T14:26:35.540Z,608
2016-12-11T14:27:51.713Z,496
2016-12-11T14:29:04.772Z,624
2016-12-11T14:30:20.537Z,660
2016-12-11T14:31:36.479Z,736
2016-12-11T14:32:48.419Z,660
2016-12-11T14:34:04.922Z,744
2016-12-11T14:35:20.163Z,808
2016-12-11T14:36:37.102Z,852
2016-12-11T14:37:48.631Z,864
2016-12-11T14:39:05.106Z,868
2016-12-11T14:40:19.735Z,880
2016-12-11T14:41:34.418Z,840
2016-12-11T14:42:48.903Z,820
2016-12-11T14:44:03.798Z,760
2016-12-11T14:45:20.037Z,680
2016-12-11T14:46:35.946Z,640
2016-12-11T14:47:52.273Z,612
2016-12-11T14:49:08.196Z,576
2016-12-11T14:50:21.672Z,556
2016-12-11T14:51:36.812Z,512
2016-12-11T14:53:16.458Z,444
2016-12-11T14:54:32.650Z,424
2016-12-11T14:55:48.807Z,436
2016-12-11T14:57:05.140Z,408
2016-12-11T14:58:21.609Z,352
2016-12-11T14:59:37.127Z,272
2016-12-11T15:00:53.712Z,192
2016-12-11T15:02:09.652Z,172
2016-12-11T15:03:25.922Z,160
2016-12-11T15:04:41.087Z,160
2016-12-11T15:05:56.694Z,168
2016-12-11T15:07:12.391Z,196
2016-12-11T15:08:28.447Z,188
2016-12-11T15:09:43.237Z,132
2016-12-11T15:10:57.939Z,96
2016-12-11T15:12:14.132Z,88
2016-12-11T15:13:27.499Z,88
2016-12-11T15:14:44.401Z,80
2016-12-11T15:15:59.109Z,88
2016-12-11T15:17:13.751Z,80
2016-12-11T15:18:30.128Z,88
2016-12-11T15:19:44.998Z,84
2016-12-11T15:20:59.715Z,80
2016-12-11T15:22:16.447Z,76
2016-12-11T15:23:33.374Z,68
2016-12-11T15:24:50.003Z,48
2016-12-11T15:26:04.478Z,48
2016-12-11T15:27:19.329Z,48
2016-12-11T15:28:34.963Z,44
2016-12-11T15:29:49.829Z,40
2016-12-11T15:31:04.600Z,32
2016-12-11T15:32:20.154Z,28
2016-12-11T15:33:36.329Z,24
2016-12-11T15:34:51.826Z,16
2016-12-11T15:36:06.727Z,12
2016-12-11T15:37:21.075Z,8
2016-12-11T15:38:35.392Z,8
2016-12-11T15:39:51.261Z,4
2016-12-11T15:41:07.215Z,4
2016-12-11T15:42:23.939Z,4
2016-12-11T15:43:40.032Z,0
2016-12-11T15:44:54.788Z,0
2016-12-11T15:46:10.858Z,4
2016-12-11T15:47:25.102Z,0
2016-12-11T15:48:41.446Z,0
2016-12-11T15:49:55.800Z,0
2016-12-11T15:51:11.457Z,0
2016-12-11T15:52:27.302Z,0
2016-12-11T15:53:44.301Z,0
2016-12-11T15:55:00.691Z,0
2016-12-11T15:56:15.725Z,0
2016-12-11T15:57:30.089Z,0
2016-12-11T15:58:46.833Z,0
2016-12-11T16:00:00.249Z,0
2016-12-11T16:01:14.796Z,0
2016-12-11T16:02:29.266Z,0
2016-12-11T16:03:42.809Z,0
2016-12-11T16:04:57.012Z,0
2016-12-11T16:06:11.611Z,0
2016-12-11T16:07:26.519Z,0
2016-12-11T16:08:41.490Z,0
2016-12-11T16:09:56.920Z,0
2016-12-11T16:11:13.576Z,0
2016-12-11T16:12:29.164Z,0
2016-12-11T16:13:45.526Z,0
2016-12-11T16:15:02.035Z,0
2016-12-11T16:16:17.945Z,0
2016-12-11T16:17:33.460Z,0
2016-12-11T16:18:45.232Z,0
2016-12-11T16:19:59.670Z,0
2016-12-11T16:21:15.823Z,0
2016-12-11T16:22:31.358Z,0
2016-12-11T16:23:48.302Z,0
2016-12-11T16:25:04.774Z,0
2016-12-11T16:26:15.249Z,0
2016-12-11T16:27:28.055Z,0
2016-12-11T16:28:43.594Z,0
2016-12-11T16:29:56.600Z,0
2016-12-11T16:31:12.338Z,0
2016-12-11T16:32:27.128Z,0
2016-12-11T16:33:42.209Z,0
2016-12-11T16:34:58.530Z,0
2016-12-11T16:36:15.126Z,0
2016-12-11T16:37:31.893Z,0
2016-12-11T16:38:45.484Z,0
2016-12-11T16:40:00.341Z,0
2016-12-11T16:41:13.997Z,0
2016-12-11T16:42:27.770Z,0
2016-12-11T16:43:43.699Z,0
2016-12-11T16:44:56.852Z,0
2016-12-11T16:46:13.176Z,0
2016-12-11T16:47:29.243Z,0
2016-12-11T16:48:45.923Z,0
2016-12-11T16:50:01.361Z,0
2016-12-11T16:51:16.271Z,0
2016-12-11T16:52:32.501Z,0
2016-12-11T16:53:47.300Z,0
2016-12-11T16:55:03.227Z,0
2016-12-11T16:56:19.700Z,0
2016-12-11T16:57:36.878Z,0
2016-12-11T16:58:51.766Z,0
2016-12-11T17:00:07.993Z,0
2016-12-11T17:01:23.743Z,0
2016-12-11T17:02:40.480Z,0
2016-12-11T17:03:55.235Z,0
2016-12-11T17:05:08.759Z,0
2016-12-11T17:06:21.518Z,0
2016-12-11T17:07:36.129Z,0
2016-12-11T17:08:51.807Z,0
2016-12-11T17:10:07.554Z,0
2016-12-11T17:11:24.443Z,0
2016-12-11T17:12:41.062Z,0
2016-12-11T17:13:57.008Z,0
2016-12-11T17:15:10.091Z,0
2016-12-11T17:16:24.717Z,0
2016-12-11T17:17:39.829Z,0
2016-12-11T17:18:55.008Z,0
2016-12-11T17:20:11.360Z,0
2016-12-11T17:21:25.664Z,0
2016-12-11T17:22:37.439Z,0
2016-12-11T17:23:53.945Z,0
2016-12-11T17:25:08.725Z,0
2016-12-11T17:26:23.494Z,0
2016-12-11T17:27:38.542Z,0
2016-12-11T17:28:55.020Z,0
2016-12-11T17:30:11.577Z,0
2016-12-11T17:31:26.274Z,0
2016-12-11T17:32:38.296Z,0
2016-12-11T17:33:54.874Z,0
2016-12-11T17:35:09.647Z,0
2016-12-11T17:36:24.429Z,0
2016-12-11T17:37:37.692Z,0
2016-12-11T17:38:54.160Z,0
2016-12-11T17:40:08.889Z,0